createdAt,value
2022-11-24T00:01:05.481Z,0.63
2022-11-24T00:03:35.934Z,0.68
2022-11-24T00:06:05.659Z,1.15
2022-11-24T00:08:34.827Z,0.60
2022-11-24T00:11:07.622Z,0.73
2022-11-24T00:13:39.114Z,1.02
2022-11-24T00:16:09.110Z,1.98
2022-11-24T00:18:39.972Z,0.70
2022-11-24T00:21:09.005Z,1.13
2022-11-24T00:23:38.354Z,0.73
2022-11-24T00:26:08.875Z,0.98
2022-11-24T00:28:38.249Z,1.20
2022-11-24T00:31:12.498Z,1.65
2022-11-24T00:33:45.808Z,1.05
2022-11-24T00:36:15.320Z,1.27
2022-11-24T00:38:44.504Z,1.48
2022-11-24T00:41:13.513Z,1.00
2022-11-24T00:43:42.420Z,2.30
2022-11-24T00:46:11.595Z,1.20
2022-11-24T00:48:40.609Z,2.15
2022-11-24T00:51:12.537Z,1.92
2022-11-24T00:53:41.499Z,1.00
2022-11-24T00:56:11.199Z,1.00
2022-11-24T00:58:40.606Z,1.70
2022-11-24T01:01:11.219Z,0.88
2022-11-24T01:03:40.954Z,1.02
2022-11-24T01:06:13.455Z,1.65
2022-11-24T01:08:42.520Z,1.00
2022-11-24T01:11:12.997Z,1.10
2022-11-24T01:13:42.826Z,1.23
2022-11-24T01:16:15.927Z,1.42
2022-11-24T01:18:45.154Z,1.50
2022-11-24T01:21:16.297Z,1.15
2022-11-24T01:23:45.633Z,1.10
2022-11-24T01:26:16.444Z,1.27
2022-11-24T01:28:47.577Z,1.10
2022-11-24T01:31:17.618Z,0.88
2022-11-24T01:33:47.077Z,1.50
2022-11-24T01:36:17.692Z,0.85
2022-11-24T01:38:46.661Z,1.50
2022-11-24T01:41:17.044Z,1.08
2022-11-24T01:43:46.955Z,1.35
2022-11-24T01:46:19.151Z,1.65
2022-11-24T01:48:50.741Z,1.50
2022-11-24T01:51:22.570Z,1.05
2022-11-24T01:53:54.265Z,1.02
2022-11-24T01:56:23.505Z,1.10
2022-11-24T01:58:54.049Z,0.93
2022-11-24T02:01:23.065Z,1.25
2022-11-24T02:03:53.340Z,0.82
2022-11-24T02:06:25.885Z,0.80
2022-11-24T02:08:59.275Z,0.60
2022-11-24T02:11:30.482Z,0.95
2022-11-24T02:13:59.544Z,1.02
2022-11-24T02:16:28.761Z,0.80
2022-11-24T02:18:58.166Z,0.77
2022-11-24T02:21:28.634Z,2.35
2022-11-24T02:24:02.930Z,0.70
2022-11-24T02:26:38.578Z,0.70
2022-11-24T02:29:07.780Z,1.08
2022-11-24T02:31:36.865Z,1.00
2022-11-24T02:34:06.528Z,1.15
2022-11-24T02:36:35.655Z,0.88
2022-11-24T02:39:04.852Z,1.30
2022-11-24T02:41:33.735Z,1.35
2022-11-24T02:44:04.236Z,1.50
2022-11-24T02:46:33.256Z,1.23
2022-11-24T02:49:02.504Z,1.65
2022-11-24T02:51:33.396Z,1.20
2022-11-24T02:54:02.826Z,1.37
2022-11-24T02:56:34.051Z,1.65
2022-11-24T02:59:04.791Z,0.93
2022-11-24T03:01:34.256Z,1.77
2022-11-24T03:04:06.678Z,1.30
2022-11-24T03:06:35.798Z,1.20
2022-11-24T03:09:04.979Z,0.95
2022-11-24T03:11:34.237Z,2.35
2022-11-24T03:14:05.110Z,1.60
2022-11-24T03:16:35.099Z,1.50
2022-11-24T03:19:04.234Z,2.17
2022-11-24T03:21:33.426Z,2.65
2022-11-24T03:24:04.529Z,2.22
2022-11-24T03:26:35.953Z,2.25
2022-11-24T03:29:07.795Z,1.93
2022-11-24T03:31:37.419Z,1.88
2022-11-24T03:34:07.112Z,4.25
2022-11-24T03:36:36.410Z,2.50
2022-11-24T03:39:11.748Z,1.48
2022-11-24T03:41:41.101Z,2.42
2022-11-24T03:44:12.912Z,2.55
2022-11-24T03:46:42.541Z,1.80
2022-11-24T03:49:12.014Z,1.25
2022-11-24T03:51:44.008Z,1.45
2022-11-24T03:54:13.252Z,2.65
2022-11-24T03:56:42.893Z,1.30
2022-11-24T03:59:13.545Z,2.33
2022-11-24T04:01:43.431Z,1.30
2022-11-24T04:04:12.786Z,1.38
2022-11-24T04:06:42.249Z,3.42
2022-11-24T04:09:11.543Z,2.10
2022-11-24T04:11:58.609Z,2.75
2022-11-24T04:14:29.145Z,2.03
2022-11-24T04:16:58.753Z,3.25
2022-11-24T04:19:35.605Z,1.63
2022-11-24T04:22:05.053Z,2.22
2022-11-24T04:24:43.277Z,2.35
2022-11-24T04:27:18.801Z,1.65
2022-11-24T04:29:49.959Z,2.60
2022-11-24T04:32:19.438Z,2.45
2022-11-24T04:34:48.788Z,3.53
2022-11-24T04:37:18.094Z,2.47
2022-11-24T04:39:47.482Z,1.60
2022-11-24T04:42:18.520Z,2.33
2022-11-24T04:44:49.485Z,2.33
2022-11-24T04:47:20.784Z,1.65
2022-11-24T04:49:50.226Z,1.27
2022-11-24T04:52:20.399Z,2.03
2022-11-24T04:54:50.256Z,1.50
2022-11-24T04:57:20.349Z,1.50
2022-11-24T04:59:51.428Z,2.22
2022-11-24T05:02:21.100Z,2.65
2022-11-24T05:04:50.679Z,2.10
2022-11-24T05:07:20.459Z,2.85
2022-11-24T05:10:03.842Z,1.67
2022-11-24T05:12:33.213Z,1.95
2022-11-24T05:15:04.788Z,1.40
2022-11-24T05:17:35.698Z,4.10
2022-11-24T05:20:05.890Z,2.67
2022-11-24T05:22:35.025Z,2.33
2022-11-24T05:25:04.126Z,2.72
2022-11-24T05:27:33.766Z,1.70
2022-11-24T05:30:05.096Z,2.13
2022-11-24T05:32:34.280Z,2.75
2022-11-24T05:35:04.741Z,2.22
2022-11-24T05:37:34.185Z,1.58
2022-11-24T05:40:03.760Z,2.83
2022-11-24T05:42:47.333Z,2.63
2022-11-24T05:45:19.816Z,2.67
2022-11-24T05:47:49.596Z,2.17
2022-11-24T05:50:20.326Z,1.95
2022-11-24T05:52:49.815Z,2.17
2022-11-24T05:55:21.056Z,2.38
2022-11-24T05:57:50.329Z,2.67
2022-11-24T06:00:22.034Z,2.58
2022-11-24T06:02:51.404Z,1.65
2022-11-24T06:05:21.963Z,2.35
2022-11-24T06:07:52.455Z,4.13
2022-11-24T06:10:24.310Z,2.20
2022-11-24T06:12:54.331Z,2.90
2022-11-24T06:15:25.100Z,2.72
2022-11-24T06:17:56.914Z,2.47
2022-11-24T06:20:31.327Z,2.50
2022-11-24T06:23:02.638Z,4.65
2022-11-24T06:25:32.270Z,1.90
2022-11-24T06:28:07.477Z,2.47
2022-11-24T06:30:38.059Z,2.58
2022-11-24T06:33:07.320Z,2.72
2022-11-24T06:35:36.478Z,1.98
2022-11-24T06:38:09.191Z,3.78
2022-11-24T06:40:38.234Z,2.40
2022-11-24T06:43:12.895Z,2.65
2022-11-24T06:45:43.444Z,2.58
2022-11-24T06:48:13.046Z,2.65
2022-11-24T06:50:42.150Z,2.72
2022-11-24T06:53:16.048Z,3.10
2022-11-24T06:55:50.446Z,3.40
2022-11-24T06:58:21.567Z,2.40
2022-11-24T07:00:53.199Z,3.85
2022-11-24T07:03:25.376Z,2.83
2022-11-24T07:05:57.530Z,2.60
2022-11-24T07:10:55.529Z,2.97
2022-11-24T07:13:27.317Z,3.95
2022-11-24T07:16:03.379Z,3.08
2022-11-24T07:18:34.926Z,3.15
2022-11-24T07:21:05.497Z,2.85
2022-11-24T07:23:34.880Z,5.53
2022-11-24T07:26:06.881Z,2.58
2022-11-24T07:28:38.396Z,2.53
2022-11-24T07:31:19.071Z,4.63
2022-11-24T07:34:04.177Z,5.05
2022-11-24T07:36:45.307Z,2.85
2022-11-24T07:39:14.753Z,2.25
2022-11-24T07:41:45.848Z,3.17
2022-11-24T07:44:26.272Z,3.92
2022-11-24T07:46:57.013Z,4.85
2022-11-24T07:49:29.470Z,3.08
2022-11-24T07:52:02.374Z,2.45
2022-11-24T07:54:32.182Z,3.20
2022-11-24T07:57:01.771Z,3.65
2022-11-24T07:59:36.388Z,2.35
2022-11-24T08:02:14.437Z,3.22
2022-11-24T08:04:46.299Z,2.97
2022-11-24T08:07:15.626Z,2.88
2022-11-24T08:09:44.965Z,2.55
2022-11-24T08:12:21.533Z,3.63
2022-11-24T08:14:58.581Z,2.65
2022-11-24T08:17:29.935Z,3.08
2022-11-24T08:19:59.431Z,2.70
2022-11-24T08:22:31.111Z,2.47
2022-11-24T08:27:35.150Z,3.28
2022-11-24T08:30:05.655Z,4.13
2022-11-24T08:32:53.098Z,3.10
2022-11-24T08:35:22.485Z,3.63
2022-11-24T08:38:04.421Z,2.65
2022-11-24T08:40:34.458Z,4.50
2022-11-24T08:43:08.842Z,3.00
2022-11-24T08:45:41.385Z,2.85
2022-11-24T08:48:14.853Z,3.67
2022-11-24T08:50:44.217Z,3.00
2022-11-24T08:53:15.067Z,3.15
2022-11-24T08:55:46.285Z,2.83
2022-11-24T08:58:16.624Z,3.58
2022-11-24T09:00:47.114Z,2.50
2022-11-24T09:03:28.326Z,3.80
2022-11-24T09:06:00.699Z,3.63
2022-11-24T09:08:40.415Z,3.17
2022-11-24T09:11:10.598Z,3.15
2022-11-24T09:13:41.178Z,2.65
2022-11-24T09:16:13.491Z,3.72
2022-11-24T09:18:46.306Z,4.32
2022-11-24T09:21:19.179Z,4.40
2022-11-24T09:23:52.522Z,3.33
2022-11-24T09:26:22.655Z,3.25
2022-11-24T09:28:54.704Z,3.42
2022-11-24T09:31:25.054Z,3.55
2022-11-24T09:34:01.131Z,2.63
2022-11-24T09:36:33.097Z,2.75
2022-11-24T09:39:02.380Z,3.72
2022-11-24T09:41:37.521Z,2.80
2022-11-24T09:44:22.589Z,3.20
2022-11-24T09:46:58.931Z,4.72
2022-11-24T09:49:37.622Z,2.50
2022-11-24T09:52:11.095Z,5.65
2022-11-24T09:54:47.383Z,5.18
2022-11-24T09:57:20.456Z,4.47
2022-11-24T09:59:49.648Z,3.95
2022-11-24T10:02:20.970Z,3.70
2022-11-24T10:04:52.560Z,3.97
2022-11-24T10:07:31.554Z,4.25
2022-11-24T10:10:07.610Z,3.42
2022-11-24T10:12:49.908Z,5.70
2022-11-24T10:15:27.543Z,4.82
2022-11-24T10:18:05.286Z,4.32
2022-11-24T10:20:44.715Z,4.15
2022-11-24T10:23:20.706Z,3.88
2022-11-24T10:25:56.763Z,4.30
2022-11-24T10:28:29.746Z,4.90
2022-11-24T10:31:10.489Z,4.53
2022-11-24T10:33:45.975Z,3.47
2022-11-24T10:36:21.644Z,4.28
2022-11-24T10:38:59.358Z,3.97
2022-11-24T10:41:33.216Z,3.95
2022-11-24T10:44:09.416Z,3.88
2022-11-24T10:46:39.640Z,3.20
2022-11-24T10:49:08.973Z,5.07
2022-11-24T10:51:48.700Z,4.13
2022-11-24T10:54:19.995Z,5.20
2022-11-24T10:56:49.963Z,5.45
2022-11-24T10:59:34.281Z,5.18
2022-11-24T11:02:04.369Z,4.22
2022-11-24T11:04:35.090Z,3.85
2022-11-24T11:07:20.165Z,4.43
2022-11-24T11:09:51.866Z,4.93
2022-11-24T11:15:28.235Z,3.97
2022-11-24T11:18:02.361Z,3.80
2022-11-24T11:20:35.677Z,4.38
2022-11-24T11:23:08.351Z,7.82
2022-11-24T11:25:41.182Z,5.82
2022-11-24T11:28:29.232Z,5.82
2022-11-24T11:34:06.146Z,4.47
2022-11-24T11:36:38.614Z,4.15
2022-11-24T11:39:08.078Z,4.40
2022-11-24T11:41:42.961Z,4.88
2022-11-24T11:44:25.507Z,5.68
2022-11-24T11:46:56.510Z,3.97
2022-11-24T11:49:26.237Z,3.38
2022-11-24T11:52:00.509Z,2.90
2022-11-24T11:54:36.256Z,4.10
2022-11-24T11:57:13.150Z,3.63
2022-11-24T11:59:52.169Z,3.90
2022-11-24T12:02:55.698Z,3.38
2022-11-24T12:05:34.321Z,5.13
2022-11-24T12:08:11.571Z,2.78
2022-11-24T12:10:48.118Z,2.65
2022-11-24T12:13:34.537Z,4.60
2022-11-24T12:16:10.825Z,3.20
2022-11-24T12:18:59.995Z,3.00
2022-11-24T12:21:35.531Z,3.40
2022-11-24T12:24:10.647Z,4.72
2022-11-24T12:26:46.056Z,3.13
2022-11-24T12:29:39.277Z,2.75
2022-11-24T12:32:13.524Z,3.85
2022-11-24T12:34:49.344Z,3.25
2022-11-24T12:37:37.771Z,2.65
2022-11-24T12:40:18.995Z,3.58
2022-11-24T12:42:53.549Z,3.23
2022-11-24T12:45:33.711Z,3.35
2022-11-24T12:48:22.592Z,3.65
2022-11-24T12:50:55.816Z,3.15
2022-11-24T12:53:26.643Z,3.65
2022-11-24T12:56:01.982Z,3.72
2022-11-24T12:58:34.820Z,3.40
2022-11-24T13:01:15.992Z,3.20
2022-11-24T13:03:55.757Z,3.28
2022-11-24T13:09:20.228Z,4.32
2022-11-24T13:11:56.747Z,2.90
2022-11-24T13:14:38.223Z,4.85
2022-11-24T13:17:31.659Z,3.63
2022-11-24T13:20:30.004Z,3.45
2022-11-24T13:23:00.880Z,3.67
2022-11-24T13:25:43.469Z,3.25
2022-11-24T13:29:00.320Z,3.60
2022-11-24T13:31:25.103Z,3.53
2022-11-24T13:33:54.427Z,4.57
2022-11-24T13:36:38.567Z,4.28
2022-11-24T13:39:20.701Z,3.40
2022-11-24T13:42:42.922Z,3.05
2022-11-24T13:45:04.765Z,3.47
2022-11-24T13:47:38.963Z,4.57
2022-11-24T13:50:12.592Z,3.42
2022-11-24T13:52:47.577Z,3.58
2022-11-24T13:55:30.105Z,4.40
2022-11-24T14:01:14.668Z,3.03
2022-11-24T14:04:29.259Z,3.50
2022-11-24T14:07:02.475Z,2.60
2022-11-24T14:09:42.430Z,3.20
2022-11-24T14:12:18.541Z,3.50
2022-11-24T14:14:56.511Z,3.20
2022-11-24T14:17:28.369Z,2.58
2022-11-24T14:19:59.004Z,2.22
2022-11-24T14:22:34.628Z,3.60
2022-11-24T14:25:05.911Z,3.85
2022-11-24T14:27:44.380Z,3.20
2022-11-24T14:30:20.067Z,3.75
2022-11-24T14:33:03.392Z,4.40
2022-11-24T14:35:36.502Z,2.22
2022-11-24T14:38:07.789Z,2.72
2022-11-24T14:40:50.370Z,3.53
2022-11-24T14:43:35.689Z,4.05
2022-11-24T14:46:06.762Z,3.58
2022-11-24T14:48:38.611Z,2.80
2022-11-24T14:51:12.419Z,3.35
2022-11-24T14:53:45.429Z,2.75
2022-11-24T14:56:29.400Z,3.88
2022-11-24T14:59:00.487Z,3.45
2022-11-24T15:01:37.949Z,2.75
2022-11-24T15:05:00.862Z,3.72
2022-11-24T15:07:19.090Z,2.70
2022-11-24T15:09:53.700Z,3.20
2022-11-24T15:12:29.247Z,3.55
2022-11-24T15:15:05.052Z,4.30
2022-11-24T15:17:37.854Z,2.50
2022-11-24T15:22:42.097Z,1.98
2022-11-24T15:25:34.804Z,3.60
2022-11-24T15:28:07.068Z,3.78
2022-11-24T15:30:46.122Z,4.20
2022-11-24T15:33:18.806Z,3.42
2022-11-24T15:35:54.743Z,2.65
2022-11-24T15:38:27.472Z,3.90
2022-11-24T15:40:57.764Z,2.65
2022-11-24T15:43:31.067Z,2.72
2022-11-24T15:46:02.514Z,3.33
2022-11-24T15:48:34.151Z,2.30
2022-11-24T15:51:08.005Z,2.25
2022-11-24T15:53:39.594Z,2.90
2022-11-24T15:56:21.762Z,1.67
2022-11-24T15:58:50.789Z,2.42
2022-11-24T16:01:25.282Z,2.67
2022-11-24T16:03:54.459Z,3.40
2022-11-24T16:06:31.506Z,2.88
2022-11-24T16:09:00.432Z,2.88
2022-11-24T16:11:29.672Z,3.08
2022-11-24T16:14:04.708Z,2.00
2022-11-24T16:16:47.505Z,1.95
2022-11-24T16:19:16.782Z,1.30
2022-11-24T16:21:51.575Z,0.93
2022-11-24T16:24:20.842Z,0.80
2022-11-24T16:26:50.284Z,0.88
2022-11-24T16:29:24.535Z,1.00
2022-11-24T16:31:55.050Z,0.80
2022-11-24T16:34:24.237Z,0.73
2022-11-24T16:36:53.546Z,0.60
2022-11-24T16:39:22.765Z,0.95
2022-11-24T16:41:51.960Z,0.98
2022-11-24T16:44:21.558Z,1.00
2022-11-24T16:46:50.861Z,0.50
2022-11-24T16:49:24.395Z,0.98
2022-11-24T16:51:55.104Z,0.52
2022-11-24T16:54:27.307Z,1.00
2022-11-24T16:57:06.383Z,0.77
2022-11-24T16:59:37.334Z,0.50
2022-11-24T17:02:07.333Z,0.60
2022-11-24T17:04:39.874Z,0.20
2022-11-24T17:07:09.134Z,0.30
2022-11-24T17:09:40.804Z,0.28
2022-11-24T17:12:09.904Z,0.50
2022-11-24T17:14:39.134Z,0.40
2022-11-24T17:17:12.332Z,0.30
2022-11-24T17:19:46.625Z,0.90
2022-11-24T17:22:15.664Z,0.55
2022-11-24T17:24:44.709Z,0.60
2022-11-24T17:27:13.715Z,1.45
2022-11-24T17:29:43.292Z,1.83
2022-11-24T17:32:14.876Z,1.30
2022-11-24T17:34:48.313Z,1.75
2022-11-24T17:37:17.793Z,2.03
2022-11-24T17:40:05.945Z,1.88
2022-11-24T17:42:37.081Z,1.65
2022-11-24T17:45:06.792Z,2.17
2022-11-24T17:47:35.943Z,1.92
2022-11-24T17:50:11.218Z,1.88
2022-11-24T17:52:41.480Z,1.52
2022-11-24T17:55:11.153Z,1.60
2022-11-24T17:57:40.317Z,2.20
2022-11-24T18:00:24.047Z,3.33
2022-11-24T18:02:56.778Z,2.33
2022-11-24T18:05:27.271Z,2.53
2022-11-24T18:07:57.071Z,3.17
2022-11-24T18:10:26.503Z,2.95
2022-11-24T18:12:56.581Z,3.28
2022-11-24T18:15:26.138Z,3.60
2022-11-24T18:17:58.364Z,3.42
2022-11-24T18:20:29.307Z,3.55
2022-11-24T18:23:05.441Z,2.85
2022-11-24T18:25:37.344Z,3.28
2022-11-24T18:28:09.274Z,3.03
2022-11-24T18:33:08.755Z,3.85
2022-11-24T18:35:42.343Z,3.90
2022-11-24T18:38:11.592Z,3.10
2022-11-24T18:40:43.958Z,3.03
2022-11-24T18:43:13.098Z,3.67
2022-11-24T18:45:42.394Z,2.45
2022-11-24T18:48:11.582Z,3.40
2022-11-24T18:50:45.116Z,4.25
2022-11-24T18:53:14.554Z,3.25
2022-11-24T18:55:50.188Z,3.83
2022-11-24T18:58:20.380Z,2.60
2022-11-24T19:00:53.839Z,4.18
2022-11-24T19:03:25.328Z,5.70
2022-11-24T19:05:59.670Z,4.63
2022-11-24T19:08:28.627Z,3.25
2022-11-24T19:13:41.263Z,4.85
2022-11-24T19:16:14.676Z,4.75
2022-11-24T19:18:46.412Z,4.05
2022-11-24T19:21:20.037Z,4.47
2022-11-24T19:23:49.437Z,4.35
2022-11-24T19:26:22.673Z,4.05
2022-11-24T19:28:53.002Z,4.60
2022-11-24T19:31:25.208Z,2.75
2022-11-24T19:33:55.427Z,4.95
2022-11-24T19:36:26.257Z,3.80
2022-11-24T19:39:00.820Z,3.20
2022-11-24T19:41:32.005Z,3.28
2022-11-24T19:44:02.657Z,4.68
2022-11-24T19:46:32.161Z,5.93
2022-11-24T19:49:01.737Z,5.43
2022-11-24T19:51:33.132Z,4.28
2022-11-24T19:54:06.105Z,5.22
2022-11-24T19:56:36.230Z,4.65
2022-11-24T19:59:06.059Z,4.22
2022-11-24T20:01:37.594Z,4.20
2022-11-24T20:04:08.114Z,3.63
2022-11-24T20:06:45.273Z,5.90
2022-11-24T20:09:25.753Z,5.07
2022-11-24T20:11:55.248Z,4.13
2022-11-24T20:14:24.878Z,3.83
2022-11-24T20:17:06.342Z,4.40
2022-11-24T20:19:38.950Z,4.07
2022-11-24T20:22:09.347Z,5.45
2022-11-24T20:24:43.477Z,5.93
2022-11-24T20:27:38.422Z,4.57
2022-11-24T20:30:08.380Z,3.33
2022-11-24T20:32:38.165Z,3.75
2022-11-24T20:35:16.652Z,3.97
2022-11-24T20:37:48.640Z,4.07
2022-11-24T20:40:18.079Z,4.20
2022-11-24T20:42:57.818Z,4.57
2022-11-24T20:45:36.724Z,4.45
2022-11-24T20:48:06.915Z,3.20
2022-11-24T20:50:38.451Z,4.07
2022-11-24T20:53:09.279Z,3.33
2022-11-24T20:55:38.659Z,3.42
2022-11-24T20:58:07.668Z,3.78
2022-11-24T21:00:40.858Z,4.30
2022-11-24T21:03:10.273Z,3.38
2022-11-24T21:05:40.093Z,4.45
2022-11-24T21:08:12.640Z,3.70
2022-11-24T21:10:45.124Z,4.60
2022-11-24T21:13:14.533Z,4.13
2022-11-24T21:15:44.027Z,4.63
2022-11-24T21:18:14.942Z,4.47
2022-11-24T21:20:47.333Z,3.65
2022-11-24T21:23:28.437Z,2.95
2022-11-24T21:26:05.190Z,3.53
2022-11-24T21:28:35.310Z,3.50
2022-11-24T21:31:05.744Z,5.35
2022-11-24T21:33:43.196Z,4.07
2022-11-24T21:36:12.763Z,4.97
2022-11-24T21:38:43.757Z,5.03
2022-11-24T21:41:15.888Z,3.40
2022-11-24T21:43:45.288Z,3.70
2022-11-24T21:46:15.332Z,3.55
2022-11-24T21:48:50.597Z,3.47
2022-11-24T21:51:25.946Z,4.43
2022-11-24T21:53:58.756Z,7.25
2022-11-24T21:56:31.917Z,13.63
2022-11-24T21:59:05.734Z,9.60
2022-11-24T22:01:39.482Z,8.95
2022-11-24T22:04:11.310Z,9.02
2022-11-24T22:06:40.824Z,4.80
2022-11-24T22:09:18.522Z,6.00
2022-11-24T22:11:52.575Z,4.13
2022-11-24T22:14:21.775Z,3.13
2022-11-24T22:16:51.902Z,3.58
2022-11-24T22:19:24.653Z,3.40
2022-11-24T22:21:57.411Z,3.30
2022-11-24T22:24:28.405Z,4.00
2022-11-24T22:26:57.971Z,4.80
2022-11-24T22:29:26.959Z,4.35
2022-11-24T22:31:59.171Z,4.13
2022-11-24T22:34:28.562Z,3.38
2022-11-24T22:37:00.513Z,4.05
2022-11-24T22:39:30.836Z,3.33
2022-11-24T22:42:00.348Z,4.75
2022-11-24T22:44:30.442Z,6.50
2022-11-24T22:46:59.999Z,5.10
2022-11-24T22:49:29.771Z,4.63
2022-11-24T22:51:59.820Z,4.10
2022-11-24T22:54:29.094Z,3.75
2022-11-24T22:56:59.449Z,3.22
2022-11-24T22:59:29.164Z,3.28
2022-11-24T23:01:58.155Z,4.03
2022-11-24T23:04:33.725Z,4.03
2022-11-24T23:07:08.645Z,4.10
2022-11-24T23:09:39.498Z,5.85
2022-11-24T23:12:19.562Z,4.25
2022-11-24T23:14:49.777Z,3.22
2022-11-24T23:17:21.996Z,5.70
2022-11-24T23:19:51.610Z,3.63
2022-11-24T23:22:21.092Z,3.33
2022-11-24T23:24:53.173Z,4.63
2022-11-24T23:27:23.571Z,5.03
2022-11-24T23:29:52.852Z,3.85
2022-11-24T23:32:27.466Z,6.90
2022-11-24T23:34:58.331Z,3.95
2022-11-24T23:38:00.061Z,4.03
2022-11-24T23:40:25.917Z,3.50
2022-11-24T23:42:56.953Z,3.67
2022-11-24T23:45:26.294Z,4.37
2022-11-24T23:47:56.031Z,4.18
2022-11-24T23:50:25.498Z,4.03
2022-11-24T23:52:55.419Z,3.45
2022-11-24T23:55:24.781Z,4.43
